LFPV 301030Z AUTO 07015G25KT CAVOK 22/05 Q1020 TEMPO 08008KT

ElémentsDécodage
LFPV Station météo située sur l'aérodrome de VILLACOUBLAY Vélizy
301030Z émis le 30 du mois à 10h30 UTC
AUTO Bulletin édité par un automate
07015G25KT vent du 070°, moyenne: 15 noeuds, avec rafales à 25 noeuds
CAVOK Ceiling And Visibility OK
- Visibilité de 10 Km ou plus
- Pas de nuage au-dessous de 1500m ou au-dessous de l'altitude minimale du secteur la plus élevée (si>1500m) et absence de CB
- pas de temps présent significatif
22/05 température 22°C, point de rosée 05°C
 soit une humidité relative de 33%
Q1020 la pression au niveau de la mer (QNH) est de 1020 hPa
TEMPO fluctuation temporaire prévue
08008KT vent du 080°, 08 noeuds